Time;durP1;ratioP1;P1;durP2;ratioP2;P2;SDS_P1;SDS_P2;PMS_P1;PMS_P2;Temp;Humidity;BMP_temperature;BMP_pressure;BME280_temperature;BME280_humidity;BME280_pressure;Samples;Min_cycle;Max_cycle;Signal;HPM_P1;HPM_P2
2022/05/26 00:01:39;;;;;;;29.52;23.02;;;23.00;70.40;;;;;;4993908;28;20030;-59
2022/05/26 00:04:05;;;;;;;30.43;23.00;;;23.00;70.30;;;;;;4994451;28;20026;-58
2022/05/26 00:06:32;;;;;;;31.90;22.88;;;23.00;70.30;;;;;;4994025;28;20053;-57
2022/05/26 00:08:59;;;;;;;30.15;22.85;;;23.00;70.30;;;;;;4994254;28;20031;-57
2022/05/26 00:11:26;;;;;;;;;;;23.00;70.40;;;;;;4994223;28;20038;-58
2022/05/26 00:13:53;;;;;;;34.83;25.17;;;23.00;70.10;;;;;;4994067;28;19983;-59
2022/05/26 00:16:18;;;;;;;34.72;26.80;;;22.90;70.30;;;;;;4993707;28;20030;-59
2022/05/26 00:18:45;;;;;;;29.37;24.23;;;22.90;70.40;;;;;;4994062;28;20041;-59
2022/05/26 00:21:11;;;;;;;32.45;25.00;;;22.90;70.40;;;;;;4993983;28;20105;-59
2022/05/26 00:23:36;;;;;;;30.67;25.07;;;22.90;70.50;;;;;;4994083;28;20050;-59
2022/05/26 00:26:02;;;;;;;30.10;24.60;;;22.90;70.60;;;;;;4993253;28;20058;-59
2022/05/26 00:28:30;;;;;;;26.20;23.47;;;22.90;70.70;;;;;;4993700;28;20033;-57
2022/05/26 00:30:55;;;;;;;28.33;22.27;;;22.80;70.70;;;;;;4993805;28;20109;-58
2022/05/26 00:33:21;;;;;;;26.33;21.97;;;22.80;70.40;;;;;;4993894;28;20097;-59
2022/05/26 00:35:47;;;;;;;29.60;22.30;;;22.80;70.90;;;;;;4993566;28;20076;-60
2022/05/26 00:38:14;;;;;;;29.47;21.73;;;22.70;70.40;;;;;;4993847;28;20026;-57
2022/05/26 00:40:40;;;;;;;;;;;22.70;70.50;;;;;;4993890;28;20029;-58
2022/05/26 00:43:06;;;;;;;35.17;25.85;;;22.60;70.40;;;;;;4993079;28;20279;-57
2022/05/26 00:45:54;;;;;;;33.30;25.95;;;22.60;70.90;;;;;;4993375;28;20023;-56
2022/05/26 00:48:24;;;;;;;32.60;24.85;;;22.60;71.10;;;;;;4993026;28;20029;-57
2022/05/26 00:51:01;;;;;;;29.13;25.10;;;22.50;71.30;;;;;;4992237;28;20026;-57
2022/05/26 00:53:33;;;;;;;38.05;22.70;;;22.50;71.50;;;;;;4992662;28;20091;-58
2022/05/26 00:56:12;;;;;;;34.17;22.92;;;22.40;71.50;;;;;;4990717;28;20042;-58
2022/05/26 00:58:42;;;;;;;25.80;22.85;;;22.40;71.60;;;;;;4991319;28;20030;-59
2022/05/26 01:01:10;;;;;;;27.95;22.65;;;22.30;71.40;;;;;;4992135;28;20073;-58
2022/05/26 01:03:53;;;;;;;32.60;24.02;;;22.20;71.80;;;;;;4991992;28;20026;-57
2022/05/26 01:06:39;;;;;;;31.52;25.77;;;22.20;72.10;;;;;;4992465;28;20033;-59
2022/05/26 01:09:06;;;;;;;34.58;24.35;;;22.20;72.40;;;;;;4992793;28;20406;-59
2022/05/26 01:11:35;;;;;;;34.38;26.05;;;22.20;72.10;;;;;;4992824;28;20038;-59
2022/05/26 01:14:15;;;;;;;27.73;24.52;;;22.10;72.10;;;;;;4993064;28;20030;-59
2022/05/26 01:16:54;;;;;;;31.80;24.85;;;22.10;72.40;;;;;;4993125;28;20038;-57
2022/05/26 01:19:50;;;;;;;28.88;24.85;;;22.00;72.90;;;;;;4992951;28;20479;-59
2022/05/26 01:22:43;;;;;;;33.70;25.17;;;22.00;73.60;;;;;;4992474;28;20037;-57
2022/05/26 01:25:56;;;;;;;29.83;23.67;;;22.00;74.00;;;;;;4992926;28;20030;-59
2022/05/26 01:28:36;;;;;;;26.13;23.27;;;22.10;74.00;;;;;;4935730;29;20043;-59
2022/05/26 01:31:38;;;;;;;25.13;21.90;;;22.10;74.40;;;;;;4987751;28;20038;-58
2022/05/26 01:34:25;;;;;;;27.88;20.80;;;22.10;74.30;;;;;;4992311;28;20030;-60
2022/05/26 01:37:06;;;;;;;28.55;22.80;;;22.00;74.40;;;;;;4992551;28;20038;-57
2022/05/26 01:39:54;;;;;;;27.65;22.45;;;22.10;74.40;;;;;;4992555;28;20398;-59
2022/05/26 01:42:35;;;;;;;27.27;22.88;;;22.10;74.20;;;;;;4992201;28;20041;-58
2022/05/26 01:45:17;;;;;;;27.77;23.75;;;22.00;74.20;;;;;;4992426;28;20514;-58
2022/05/26 01:48:19;;;;;;;29.90;23.65;;;22.00;74.20;;;;;;4992289;28;20541;-60
2022/05/26 01:50:53;;;;;;;28.15;22.45;;;22.00;74.50;;;;;;4992178;28;20038;-58
2022/05/26 01:53:42;;;;;;;26.58;23.77;;;21.90;75.20;;;;;;4992233;28;20026;-59
2022/05/26 01:56:37;;;;;;;25.65;22.90;;;21.90;74.50;;;;;;4992346;28;20454;-60
2022/05/26 01:59:14;;;;;;;28.38;21.70;;;21.80;74.60;;;;;;4981779;28;20031;-58
2022/05/26 02:01:45;;;;;;;23.35;21.05;;;21.80;74.60;;;;;;4991722;28;20478;-58
2022/05/26 02:04:21;;;;;;;30.30;21.95;;;21.80;74.60;;;;;;4991794;28;20463;-59
2022/05/26 02:07:01;;;;;;;24.80;19.93;;;21.80;74.80;;;;;;4992150;28;20030;-58
2022/05/26 02:09:38;;;;;;;25.00;19.73;;;21.80;74.60;;;;;;4992318;28;20026;-58
2022/05/26 02:12:12;;;;;;;29.98;19.67;;;21.70;75.40;;;;;;4992184;28;20092;-59
2022/05/26 02:15:03;;;;;;;23.88;18.70;;;21.70;74.60;;;;;;4992259;28;20569;-59
2022/05/26 02:17:34;;;;;;;27.73;19.60;;;21.70;74.70;;;;;;4991953;28;20031;-55
2022/05/26 02:20:27;;;;;;;21.55;18.58;;;21.60;74.90;;;;;;4991729;28;20037;-58
2022/05/26 02:23:23;;;;;;;23.60;18.13;;;21.60;74.80;;;;;;4991872;28;20117;-58
2022/05/26 02:25:50;;;;;;;20.70;18.13;;;21.50;75.00;;;;;;4965057;28;20077;-59
2022/05/26 02:28:16;;;;;;;23.65;17.45;;;21.50;74.80;;;;;;4992211;28;20479;-58
2022/05/26 02:30:43;;;;;;;33.93;18.60;;;21.50;74.60;;;;;;4991686;28;20022;-59
2022/05/26 02:33:14;;;;;;;25.77;17.40;;;21.50;74.60;;;;;;4991045;28;20029;-60
2022/05/26 02:35:43;;;;;;;28.30;17.67;;;21.50;74.50;;;;;;4992333;28;20065;-58
2022/05/26 02:38:22;;;;;;;23.73;17.58;;;21.50;74.20;;;;;;4980416;28;20023;-58
2022/05/26 02:40:50;;;;;;;24.00;17.20;;;21.50;74.40;;;;;;4972404;28;20440;-59
2022/05/26 02:43:22;;;;;;;23.20;16.95;;;21.40;74.20;;;;;;4972426;28;20027;-57
2022/05/26 02:45:59;;;;;;;23.08;16.95;;;21.40;74.40;;;;;;4972611;28;20027;-59
2022/05/26 02:48:28;;;;;;;;;;;21.40;74.40;;;;;;4973027;28;20102;-58
2022/05/26 02:51:14;;;;;;;22.48;16.73;;;21.30;74.10;;;;;;4988103;28;19909;-59
2022/05/26 02:53:54;;;;;;;20.95;15.02;;;21.30;74.40;;;;;;4991546;28;20062;-59
2022/05/26 02:56:30;;;;;;;23.40;16.65;;;21.30;74.50;;;;;;4990665;28;20031;-57
2022/05/26 02:59:02;;;;;;;19.75;17.35;;;21.20;74.40;;;;;;4991020;28;20068;-58
2022/05/26 03:01:43;;;;;;;21.77;16.63;;;21.10;74.90;;;;;;4991136;28;20032;-57
2022/05/26 03:04:16;;;;;;;19.70;17.20;;;21.00;75.30;;;;;;4991037;28;20037;-59
2022/05/26 03:07:05;;;;;;;25.27;16.52;;;20.90;75.90;;;;;;4991426;28;20030;-59
2022/05/26 03:09:34;;;;;;;20.60;17.63;;;20.90;76.10;;;;;;5006360;28;20042;-58
2022/05/26 03:12:00;;;;;;;21.52;16.98;;;20.90;76.20;;;;;;4990561;28;20515;-59
2022/05/26 03:14:26;;;;;;;23.38;16.88;;;20.80;76.20;;;;;;4987138;28;20038;-59
2022/05/26 03:16:52;;;;;;;26.45;18.55;;;20.90;76.20;;;;;;4982510;28;20038;-59
2022/05/26 03:19:19;;;;;;;21.42;17.60;;;20.90;76.20;;;;;;4984289;28;20551;-59
2022/05/26 03:21:45;;;;;;;25.10;19.80;;;20.90;75.90;;;;;;4976019;28;20033;-59
2022/05/26 03:24:12;;;;;;;25.35;19.60;;;20.90;75.70;;;;;;4976158;28;20034;-59
2022/05/26 03:26:38;;;;;;;24.83;20.05;;;21.00;75.60;;;;;;4986289;28;20038;-59
2022/05/26 03:29:04;;;;;;;30.07;22.67;;;20.90;75.30;;;;;;4982076;28;20029;-58
2022/05/26 03:31:31;;;;;;;24.25;20.05;;;20.90;75.40;;;;;;4995457;28;20026;-57
2022/05/26 03:42:16;;;;;;;26.80;21.80;;;20.90;75.40;;;;;;4987865;28;20049;-59
2022/05/26 03:44:43;;;;;;;29.02;22.58;;;21.00;75.80;;;;;;4993660;28;20030;-60
2022/05/26 03:47:09;;;;;;;30.17;22.15;;;21.00;75.90;;;;;;4994942;28;20034;-58
2022/05/26 03:49:34;;;;;;;30.87;23.70;;;21.00;75.90;;;;;;4994802;28;20034;-57
2022/05/26 03:52:00;;;;;;;33.27;22.47;;;21.00;75.90;;;;;;4994534;28;20030;-59
2022/05/26 03:54:26;;;;;;;23.92;21.38;;;21.00;76.10;;;;;;4994254;28;20080;-59
2022/05/26 03:56:51;;;;;;;28.02;21.38;;;21.00;76.00;;;;;;4993970;28;20031;-59
2022/05/26 03:59:17;;;;;;;25.17;22.30;;;21.00;75.90;;;;;;4993058;28;20094;-58
2022/05/26 04:01:43;;;;;;;28.40;23.17;;;21.00;76.20;;;;;;4992131;28;20019;-57
2022/05/26 04:04:09;;;;;;;33.10;22.87;;;21.00;76.30;;;;;;4993018;28;20027;-58
2022/05/26 04:06:36;;;;;;;25.17;21.27;;;21.00;76.50;;;;;;4992960;28;20084;-58
2022/05/26 04:09:02;;;;;;;27.95;22.20;;;21.00;76.20;;;;;;4992830;28;20474;-58
2022/05/26 04:11:29;;;;;;;28.23;21.80;;;21.10;76.10;;;;;;4992474;28;20019;-57
2022/05/26 04:13:54;;;;;;;28.77;21.42;;;21.10;76.30;;;;;;4993297;28;20030;-58
2022/05/26 04:16:21;;;;;;;25.37;21.83;;;21.10;76.00;;;;;;4992908;28;20433;-56
2022/05/26 04:18:47;;;;;;;26.27;20.83;;;21.10;76.00;;;;;;4994190;28;20372;-60
2022/05/26 04:21:14;;;;;;;34.97;22.27;;;21.10;76.00;;;;;;4993990;28;20080;-59
2022/05/26 04:23:40;;;;;;;;;;;21.10;76.10;;;;;;4994453;28;20045;-58
2022/05/26 04:26:08;;;;;;;28.00;22.02;;;21.00;76.10;;;;;;4994041;28;19967;-59
2022/05/26 04:28:34;;;;;;;33.15;21.27;;;20.90;76.50;;;;;;4994022;28;20030;-57
2022/05/26 04:31:00;;;;;;;28.08;21.58;;;20.90;76.60;;;;;;4993720;28;20026;-58
2022/05/26 04:33:26;;;;;;;27.50;24.53;;;20.90;76.80;;;;;;4994146;28;20033;-57
2022/05/26 04:35:52;;;;;;;25.57;21.40;;;21.00;76.70;;;;;;4993933;28;20037;-57
2022/05/26 04:38:19;;;;;;;27.17;22.98;;;21.10;76.60;;;;;;4993770;28;20031;-58
2022/05/26 04:40:46;;;;;;;28.27;22.90;;;21.10;76.50;;;;;;4993634;28;20098;-57
2022/05/26 04:43:12;;;;;;;;;;;21.20;76.60;;;;;;4993946;28;20037;-58
2022/05/26 04:45:38;;;;;;;31.63;22.80;;;21.20;76.20;;;;;;4993736;28;19960;-58
2022/05/26 04:48:04;;;;;;;41.60;24.57;;;21.20;76.50;;;;;;4993170;28;20026;-58
2022/05/26 04:50:30;;;;;;;31.65;25.98;;;21.20;76.40;;;;;;4991958;28;20027;-58
2022/05/26 04:52:56;;;;;;;29.00;24.90;;;21.30;76.50;;;;;;4990403;28;20380;-60
2022/05/26 04:55:22;;;;;;;32.17;23.87;;;21.30;76.70;;;;;;4992987;28;20065;-58
2022/05/26 04:57:48;;;;;;;32.93;23.70;;;21.30;76.60;;;;;;4993445;28;20482;-57
2022/05/26 05:00:16;;;;;;;27.23;23.52;;;21.40;76.60;;;;;;4991127;28;20117;-58
2022/05/26 05:02:43;;;;;;;29.95;24.58;;;21.40;76.50;;;;;;4993306;28;20505;-58
2022/05/26 05:05:10;;;;;;;32.85;26.95;;;21.50;76.80;;;;;;4993242;28;20018;-59
2022/05/26 05:07:36;;;;;;;36.63;25.50;;;21.60;76.60;;;;;;4993148;28;20054;-59
2022/05/26 05:10:04;;;;;;;29.47;25.50;;;21.60;76.70;;;;;;4993087;28;20061;-57
2022/05/26 05:12:30;;;;;;;39.88;24.58;;;21.70;76.70;;;;;;4977004;28;20101;-59
2022/05/26 05:14:56;;;;;;;29.27;25.67;;;21.80;76.50;;;;;;4974010;28;20476;-59
2022/05/26 05:17:24;;;;;;;26.70;23.50;;;21.80;76.50;;;;;;4973735;28;20388;-58
2022/05/26 05:19:50;;;;;;;25.60;22.58;;;21.90;76.20;;;;;;4972228;28;20027;-58
2022/05/26 05:22:19;;;;;;;25.05;22.35;;;21.90;76.10;;;;;;4981128;28;20026;-58
2022/05/26 05:25:00;;;;;;;27.77;23.00;;;22.00;75.30;;;;;;4977466;28;20053;-57
2022/05/26 05:27:41;;;;;;;28.20;20.85;;;22.10;74.70;;;;;;4973644;28;20023;-58
2022/05/26 05:30:15;;;;;;;25.30;20.08;;;22.20;74.40;;;;;;4992790;28;20034;-59
2022/05/26 05:33:07;;;;;;;28.88;22.15;;;22.30;74.40;;;;;;4993000;28;20034;-58
2022/05/26 05:35:47;;;;;;;29.52;20.52;;;22.40;73.80;;;;;;4988408;28;20043;-60
2022/05/26 05:38:14;;;;;;;28.23;20.15;;;22.40;73.80;;;;;;4992821;28;20113;-60
2022/05/26 05:40:39;;;;;;;;;;;22.50;73.80;;;;;;4993287;28;20030;-61
2022/05/26 05:43:05;;;;;;;25.83;19.23;;;22.50;73.60;;;;;;5004956;23;19922;-53
2022/05/26 05:45:31;;;;;;;26.53;19.50;;;22.50;73.70;;;;;;4992709;28;20519;-53
2022/05/26 05:47:57;;;;;;;29.07;20.27;;;22.70;73.40;;;;;;4992751;28;20031;-54
2022/05/26 05:50:22;;;;;;;22.23;19.55;;;22.70;73.20;;;;;;4992544;28;20058;-56
2022/05/26 05:52:48;;;;;;;26.87;18.57;;;22.80;73.10;;;;;;4992614;28;20058;-56
2022/05/26 05:55:14;;;;;;;25.73;19.63;;;22.90;72.80;;;;;;4992549;28;20033;-41
2022/05/26 05:57:40;;;;;;;22.83;18.47;;;23.00;72.70;;;;;;4982543;28;20025;-41
2022/05/26 06:00:07;;;;;;;23.70;17.43;;;23.10;72.50;;;;;;4973045;28;20491;-42
2022/05/26 06:02:33;;;;;;;20.05;16.83;;;23.20;72.20;;;;;;4973029;28;20427;-42
2022/05/26 06:04:59;;;;;;;26.03;15.47;;;23.20;72.00;;;;;;4973114;28;20019;-40
2022/05/26 06:07:24;;;;;;;16.97;14.83;;;23.30;71.70;;;;;;4971831;28;20037;-42
2022/05/26 06:09:51;;;;;;;21.67;14.37;;;23.40;71.20;;;;;;4972965;28;20045;-41
2022/05/26 06:12:17;;;;;;;16.55;14.35;;;23.50;71.00;;;;;;4973091;28;20046;-41
2022/05/26 06:14:44;;;;;;;15.68;13.65;;;23.50;70.70;;;;;;4973197;28;20023;-42
2022/05/26 06:17:11;;;;;;;21.77;14.60;;;23.50;70.40;;;;;;4972987;28;20118;-42
2022/05/26 06:19:38;;;;;;;18.73;12.88;;;23.60;70.20;;;;;;4971451;28;20085;-41
2022/05/26 06:22:31;;;;;;;16.85;13.75;;;23.60;70.30;;;;;;4973021;28;20399;-41
2022/05/26 06:24:57;;;;;;;19.40;13.73;;;23.60;69.80;;;;;;4971083;28;20495;-41
2022/05/26 06:30:10;;;;;;;23.00;12.75;;;23.70;70.10;;;;;;4972683;28;20565;-41
2022/05/26 06:38:19;;;;;;;24.95;14.98;;;23.70;69.10;;;;;;4972795;28;20090;-42
2022/05/26 06:40:45;;;;;;;21.45;14.23;;;23.70;69.30;;;;;;4984137;28;20027;-42
2022/05/26 06:43:11;;;;;;;21.23;14.20;;;23.80;69.50;;;;;;4991937;28;20037;-41
2022/05/26 06:45:38;;;;;;;18.20;13.77;;;23.80;69.50;;;;;;4992161;28;20038;-41
2022/05/26 06:48:04;;;;;;;22.65;15.23;;;23.90;69.40;;;;;;4992180;28;20031;-42
2022/05/26 06:50:29;;;;;;;22.00;15.82;;;23.90;69.40;;;;;;4993298;28;20093;-41
2022/05/26 06:52:55;;;;;;;25.93;16.53;;;23.90;69.50;;;;;;4976210;28;20482;-41
2022/05/26 06:55:21;;;;;;;22.90;15.23;;;23.90;69.50;;;;;;4974975;28;20074;-41
2022/05/26 06:57:47;;;;;;;26.13;15.70;;;24.00;69.50;;;;;;4976276;28;20415;-42
2022/05/26 07:00:15;;;;;;;21.13;15.70;;;24.00;69.50;;;;;;4976257;28;20035;-41
2022/05/26 07:02:41;;;;;;;21.50;16.33;;;24.10;69.50;;;;;;4976208;28;20495;-41
2022/05/26 07:05:08;;;;;;;22.77;16.50;;;24.10;69.60;;;;;;4976309;28;20031;-42
2022/05/26 07:07:35;;;;;;;25.10;17.88;;;24.10;69.70;;;;;;4980407;28;20033;-42
2022/05/26 07:10:02;;;;;;;23.10;15.38;;;24.20;69.80;;;;;;4995402;28;20050;-46
2022/05/26 07:12:28;;;;;;;27.40;15.77;;;24.30;69.60;;;;;;4995512;28;20026;-46
2022/05/26 07:14:54;;;;;;;28.00;15.27;;;24.50;70.00;;;;;;4995389;28;20418;-46
2022/05/26 07:17:20;;;;;;;26.33;17.10;;;24.50;69.50;;;;;;4987830;28;20054;-46
2022/05/26 07:19:46;;;;;;;22.13;15.32;;;24.70;69.30;;;;;;4975751;28;20262;-47
2022/05/26 07:22:13;;;;;;;23.00;16.02;;;24.70;69.30;;;;;;4975870;28;20054;-45
2022/05/26 07:24:40;;;;;;;29.95;16.60;;;24.80;69.40;;;;;;4975899;28;20074;-46
2022/05/26 07:27:06;;;;;;;22.90;14.77;;;24.90;69.30;;;;;;4975814;28;20455;-46
2022/05/26 07:29:32;;;;;;;26.02;15.18;;;25.00;68.70;;;;;;4975582;28;20029;-46
2022/05/26 07:31:59;;;;;;;20.85;14.68;;;25.10;68.00;;;;;;4975625;28;20090;-47
2022/05/26 07:34:25;;;;;;;21.90;14.63;;;25.20;68.60;;;;;;4975618;28;20105;-46
2022/05/26 07:42:23;;;;;;;30.65;16.23;;;25.70;67.30;;;;;;4975558;28;20486;-47
2022/05/26 07:44:51;;;;;;;25.10;15.85;;;25.80;66.40;;;;;;4975387;28;20543;-46
2022/05/26 07:47:17;;;;;;;23.63;15.13;;;25.90;66.10;;;;;;4983769;28;20042;-46
2022/05/26 07:49:47;;;;;;;25.17;16.00;;;26.00;66.30;;;;;;4986498;28;20435;-46
2022/05/26 07:52:14;;;;;;;21.67;14.05;;;26.00;66.20;;;;;;4992094;28;20034;-48
2022/05/26 07:54:41;;;;;;;29.58;13.93;;;26.00;66.10;;;;;;4994736;28;20081;-46
2022/05/26 07:57:10;;;;;;;28.30;15.75;;;25.90;66.30;;;;;;4994769;28;20034;-47
2022/05/26 07:59:36;;;;;;;29.42;14.93;;;25.90;66.20;;;;;;4994477;28;20045;-46
2022/05/26 08:02:02;;;;;;;29.23;15.80;;;26.00;66.20;;;;;;4994468;28;20022;-46
2022/05/26 08:04:28;;;;;;;23.90;14.65;;;26.10;66.20;;;;;;4994139;28;20044;-46
2022/05/26 08:06:54;;;;;;;21.87;16.03;;;26.10;66.00;;;;;;4993459;28;20030;-46
2022/05/26 08:09:21;;;;;;;32.47;15.60;;;26.10;65.70;;;;;;4994399;28;20022;-46
2022/05/26 08:11:47;;;;;;;19.73;14.40;;;26.20;65.60;;;;;;4993029;28;20023;-46
2022/05/26 08:14:13;;;;;;;30.85;15.82;;;26.20;65.40;;;;;;4994268;28;20030;-46
2022/05/26 08:16:40;;;;;;;24.33;14.38;;;26.20;65.80;;;;;;4994232;28;20022;-46
2022/05/26 08:19:06;;;;;;;23.10;15.13;;;26.10;65.80;;;;;;4994285;28;20152;-45
2022/05/26 08:21:33;;;;;;;29.25;15.48;;;26.10;66.00;;;;;;4994098;28;20019;-47
2022/05/26 08:24:00;;;;;;;;;;;26.10;66.20;;;;;;4994541;28;20034;-46
2022/05/26 08:26:26;;;;;;;27.15;14.13;;;26.00;66.30;;;;;;4994143;28;19906;-47
2022/05/26 08:28:52;;;;;;;25.27;14.02;;;26.00;66.80;;;;;;4994057;28;20038;-46
2022/05/26 08:31:18;;;;;;;20.08;12.23;;;26.00;66.50;;;;;;4993750;28;20034;-47
2022/05/26 08:33:44;;;;;;;24.60;13.10;;;26.00;66.50;;;;;;4985525;28;20077;-46
2022/05/26 08:36:15;;;;;;;21.87;13.43;;;26.10;66.30;;;;;;4988484;28;20049;-47
2022/05/26 08:38:43;;;;;;;22.15;13.27;;;26.10;66.10;;;;;;4993057;28;20446;-46
2022/05/26 08:41:16;;;;;;;22.73;13.77;;;26.20;66.40;;;;;;4993175;28;20034;-47
2022/05/26 08:43:46;;;;;;;22.75;13.20;;;26.30;66.20;;;;;;4992888;28;20053;-47
2022/05/26 08:46:17;;;;;;;22.50;12.82;;;26.40;66.40;;;;;;4991584;28;20026;-48
2022/05/26 08:48:48;;;;;;;29.35;15.40;;;26.50;66.40;;;;;;4990675;28;20023;-46
2022/05/26 08:51:23;;;;;;;34.53;15.27;;;26.60;66.40;;;;;;4992955;28;20026;-46
2022/05/26 08:53:51;;;;;;;32.00;13.90;;;26.90;65.70;;;;;;4981307;28;20099;-47
2022/05/26 08:56:22;;;;;;;26.73;13.85;;;27.10;64.70;;;;;;4978446;28;20415;-47
2022/05/26 08:58:49;;;;;;;22.02;14.05;;;27.30;63.40;;;;;;4973933;28;20038;-46
2022/05/26 09:01:19;;;;;;;22.48;15.32;;;27.30;62.60;;;;;;4973455;28;20027;-46
2022/05/26 09:03:45;;;;;;;23.85;14.35;;;27.40;62.90;;;;;;4973791;28;20030;-46
2022/05/26 09:06:12;;;;;;;22.90;15.40;;;27.50;63.00;;;;;;4973815;28;20022;-48
2022/05/26 09:14:41;;;;;;;25.08;16.27;;;27.80;62.30;;;;;;4973671;28;20042;-48
2022/05/26 09:17:10;;;;;;;27.25;15.82;;;27.90;62.10;;;;;;4973788;28;20031;-46
2022/05/26 09:19:45;;;;;;;23.05;15.57;;;28.00;61.30;;;;;;4973617;28;20385;-45
2022/05/26 09:22:45;;;;;;;27.15;15.60;;;28.10;61.20;;;;;;4973767;28;20026;-47
2022/05/26 09:25:39;;;;;;;20.90;16.00;;;28.10;61.30;;;;;;4967298;28;20372;-46
2022/05/26 09:28:09;;;;;;;27.25;13.95;;;28.20;61.00;;;;;;4958742;28;20039;-46
2022/05/26 09:30:35;;;;;;;22.10;15.73;;;28.20;60.80;;;;;;4973342;28;20098;-47
2022/05/26 09:33:01;;;;;;;23.20;14.98;;;28.20;60.60;;;;;;4973447;28;20395;-47
2022/05/26 09:35:34;;;;;;;28.52;15.20;;;28.30;60.70;;;;;;4973686;28;20376;-48
2022/05/26 09:38:02;;;;;;;25.05;16.55;;;28.40;60.80;;;;;;4973324;28;20026;-46
2022/05/26 09:40:30;;;;;;;24.10;17.15;;;28.40;60.00;;;;;;4973176;28;20014;-47
2022/05/26 09:43:16;;;;;;;24.20;16.52;;;28.40;60.20;;;;;;4973163;28;20038;-46
2022/05/26 09:45:44;;;;;;;25.52;16.77;;;28.50;59.50;;;;;;4973258;28;20026;-47
2022/05/26 09:48:24;;;;;;;25.95;16.98;;;28.50;60.20;;;;;;4973240;28;20034;-47
2022/05/26 09:51:01;;;;;;;24.83;16.27;;;28.70;59.60;;;;;;4972954;28;20018;-48
2022/05/26 09:53:56;;;;;;;30.13;17.55;;;28.90;59.40;;;;;;4971898;28;20076;-47
2022/05/26 09:56:41;;;;;;;20.50;15.70;;;28.90;58.50;;;;;;4975565;28;20031;-47
2022/05/26 09:59:26;;;;;;;27.23;17.17;;;28.90;59.30;;;;;;4971822;28;20031;-47
2022/05/26 10:02:05;;;;;;;25.83;15.57;;;29.00;58.50;;;;;;4972952;28;20038;-48
2022/05/26 10:04:39;;;;;;;24.02;15.73;;;29.00;58.20;;;;;;4972862;28;20030;-47
2022/05/26 10:07:17;;;;;;;26.17;15.68;;;29.20;58.40;;;;;;4972921;28;20503;-46
2022/05/26 10:10:12;;;;;;;25.55;16.45;;;29.30;58.10;;;;;;4972720;28;20108;-48
2022/05/26 10:12:44;;;;;;;26.70;15.27;;;29.50;57.00;;;;;;4972866;28;20368;-48
2022/05/26 10:15:34;;;;;;;21.73;15.85;;;29.60;56.80;;;;;;4972959;28;20030;-47
2022/05/26 10:18:11;;;;;;;19.60;13.18;;;29.70;56.30;;;;;;4972815;28;20035;-47
2022/05/26 10:20:45;;;;;;;;;;;29.80;56.40;;;;;;4973155;28;20029;-47
2022/05/26 10:23:28;;;;;;;24.45;13.98;;;29.90;56.40;;;;;;4973634;28;19909;-47
2022/05/26 10:26:00;;;;;;;22.58;13.73;;;30.00;55.30;;;;;;4976907;28;20368;-48
2022/05/26 10:28:40;;;;;;;21.05;13.23;;;30.00;55.10;;;;;;4976665;28;20027;-48
2022/05/26 10:31:24;;;;;;;21.52;14.77;;;30.00;55.60;;;;;;4976685;28;20026;-48
2022/05/26 10:34:27;;;;;;;24.63;14.73;;;30.00;55.60;;;;;;4976602;28;20113;-49
2022/05/26 10:37:00;;;;;;;24.13;14.88;;;30.00;54.80;;;;;;4976503;28;20106;-48
2022/05/26 10:40:00;;;;;;;24.17;15.55;;;30.00;55.70;;;;;;4976605;28;20088;-48
2022/05/26 10:42:34;;;;;;;25.10;14.38;;;30.10;56.00;;;;;;4942218;28;20047;-47
2022/05/26 10:45:12;;;;;;;20.45;13.95;;;30.20;56.70;;;;;;4976251;28;20055;-48
2022/05/26 10:47:48;;;;;;;26.42;13.82;;;30.30;55.40;;;;;;4975775;28;20038;-47
2022/05/26 10:50:39;;;;;;;22.52;12.95;;;30.30;55.60;;;;;;4975299;28;20492;-47
2022/05/26 10:53:23;;;;;;;25.85;13.23;;;30.40;54.30;;;;;;4976178;28;20038;-49
2022/05/26 10:56:01;;;;;;;23.83;13.25;;;30.30;54.70;;;;;;4986979;28;20037;-47
2022/05/26 10:58:51;;;;;;;20.33;14.65;;;30.30;54.80;;;;;;4994793;28;20109;-47
2022/05/26 11:01:28;;;;;;;22.90;14.85;;;30.30;55.00;;;;;;4985029;28;20455;-47
2022/05/26 11:03:56;;;;;;;;;;;30.40;55.30;;;;;;4995459;28;20027;-47
2022/05/26 11:06:27;;;;;;;20.13;11.85;;;30.30;55.60;;;;;;4995231;28;19960;-47
2022/05/26 11:09:00;;;;;;;28.02;12.38;;;30.30;55.70;;;;;;4990444;28;20484;-47
2022/05/26 11:11:48;;;;;;;28.90;13.90;;;30.40;55.70;;;;;;4987188;28;20034;-48
2022/05/26 11:17:49;;;;;;;20.92;12.88;;;30.60;55.20;;;;;;4994989;28;20374;-48
2022/05/26 11:20:28;;;;;;;16.92;11.10;;;30.90;54.70;;;;;;4994907;28;20390;-48
2022/05/26 11:22:57;;;;;;;17.95;10.43;;;31.30;54.30;;;;;;4994063;28;20037;-47
2022/05/26 11:25:30;;;;;;;27.10;11.98;;;31.70;54.00;;;;;;4994783;28;20041;-48
2022/05/26 11:28:34;;;;;;;16.98;11.25;;;31.90;52.30;;;;;;4994844;28;20222;-48
2022/05/26 11:37:23;;;;;;;20.42;11.57;;;32.00;52.60;;;;;;4987835;28;20114;-48
2022/05/26 11:39:55;;;;;;;19.30;11.00;;;32.00;51.40;;;;;;4985522;28;20018;-48
2022/05/26 11:42:45;;;;;;;19.58;10.80;;;31.90;51.40;;;;;;4979961;28;20023;-48
2022/05/26 11:45:26;;;;;;;17.17;9.93;;;31.80;50.50;;;;;;4986223;28;20039;-47
2022/05/26 11:48:26;;;;;;;21.38;10.98;;;31.70;51.80;;;;;;4974974;28;20035;-49
2022/05/26 11:51:02;;;;;;;24.00;11.85;;;31.80;51.10;;;;;;4975055;28;20514;-47
2022/05/26 11:53:32;;;;;;;21.58;10.45;;;31.70;50.90;;;;;;4975267;28;20031;-48
2022/05/26 11:56:03;;;;;;;20.27;9.98;;;31.60;51.60;;;;;;4988774;28;20085;-48
2022/05/26 11:58:34;;;;;;;26.42;10.95;;;31.60;51.70;;;;;;4994359;28;20565;-48
2022/05/26 12:01:25;;;;;;;22.33;10.85;;;31.60;51.60;;;;;;4992742;28;20033;-50
2022/05/26 12:03:56;;;;;;;25.98;11.95;;;31.50;52.20;;;;;;4994479;28;20105;-48
2022/05/26 12:06:39;;;;;;;19.40;10.85;;;31.50;52.00;;;;;;4994128;28;20172;-47
2022/05/26 12:09:20;;;;;;;22.17;10.38;;;31.50;52.40;;;;;;4993862;28;20026;-48
2022/05/26 12:11:52;;;;;;;21.90;12.48;;;31.60;52.70;;;;;;4993518;28;20030;-48
2022/05/26 12:14:46;;;;;;;17.27;9.80;;;31.70;52.60;;;;;;4992995;28;20045;-51
2022/05/26 12:17:30;;;;;;;23.25;8.98;;;31.90;51.50;;;;;;4975659;28;20050;-48
2022/05/26 12:20:16;;;;;;;22.55;8.48;;;32.10;51.00;;;;;;4993899;28;20034;-49
2022/05/26 12:22:50;;;;;;;18.73;7.22;;;32.30;50.70;;;;;;4985596;28;20128;-49
2022/05/26 12:25:35;;;;;;;16.73;8.23;;;32.70;48.70;;;;;;4993969;28;20027;-47
2022/05/26 12:28:31;;;;;;;15.63;7.93;;;32.90;48.50;;;;;;4994071;28;20023;-48
2022/05/26 12:30:57;;;;;;;13.57;7.20;;;33.00;47.90;;;;;;4992192;28;20026;-48
2022/05/26 12:33:42;;;;;;;16.40;6.90;;;32.90;47.80;;;;;;4993816;28;20022;-48
2022/05/26 12:36:35;;;;;;;15.32;6.70;;;32.60;46.70;;;;;;4988731;28;20038;-48
2022/05/26 12:39:22;;;;;;;17.05;6.55;;;32.30;47.00;;;;;;4992244;28;20033;-48
2022/05/26 12:42:03;;;;;;;12.02;6.57;;;32.30;47.20;;;;;;4993375;28;20113;-48
2022/05/26 12:44:55;;;;;;;20.05;6.35;;;32.50;47.20;;;;;;4993059;28;20030;-49
2022/05/26 12:47:28;;;;;;;13.68;6.47;;;32.80;46.90;;;;;;4992206;28;20077;-48
2022/05/26 12:50:18;;;;;;;14.75;7.15;;;33.10;46.40;;;;;;4993497;28;20188;-47
2022/05/26 12:52:59;;;;;;;16.95;7.13;;;33.30;45.60;;;;;;4988185;28;20038;-47
2022/05/26 12:55:46;;;;;;;12.95;7.68;;;33.30;45.70;;;;;;4992929;28;20058;-47
2022/05/26 12:58:20;;;;;;;23.67;7.57;;;33.20;46.60;;;;;;4993184;28;20076;-47
2022/05/26 13:01:02;;;;;;;16.65;8.13;;;33.20;46.30;;;;;;4992677;28;20368;-48
2022/05/26 13:03:38;;;;;;;16.30;6.60;;;33.20;46.00;;;;;;4992864;28;20123;-50
2022/05/26 13:06:16;;;;;;;15.93;7.45;;;33.10;45.90;;;;;;4992985;28;20027;-48
2022/05/26 13:08:49;;;;;;;15.35;6.30;;;33.20;46.40;;;;;;4983074;28;20026;-49
2022/05/26 13:11:21;;;;;;;17.10;6.90;;;33.10;46.20;;;;;;4993288;28;20038;-49
2022/05/26 13:13:55;;;;;;;18.90;7.75;;;33.10;46.30;;;;;;4984056;28;20510;-48
2022/05/26 13:16:30;;;;;;;19.02;8.27;;;33.00;47.70;;;;;;4992522;28;20042;-47
2022/05/26 13:19:17;;;;;;;20.08;8.48;;;33.30;47.60;;;;;;4992867;28;20085;-49
2022/05/26 13:21:45;;;;;;;15.13;6.90;;;34.50;46.80;;;;;;4974877;28;20061;-48
2022/05/26 13:24:31;;;;;;;22.73;7.18;;;36.40;44.00;;;;;;4980057;28;20105;-49
2022/05/26 13:27:01;;;;;;;13.48;6.60;;;37.80;39.90;;;;;;4992462;28;20030;-48
2022/05/26 13:29:28;;;;;;;29.80;7.10;;;38.50;39.60;;;;;;4992824;28;20042;-46
2022/05/26 13:34:48;;;;;;;14.68;7.07;;;38.40;37.50;;;;;;4992968;28;20061;-48
2022/05/26 13:37:23;;;;;;;13.07;7.20;;;36.90;39.60;;;;;;4991184;28;20034;-49
2022/05/26 13:40:10;;;;;;;13.18;6.85;;;35.60;41.70;;;;;;4991663;28;20479;-48
2022/05/26 13:42:38;;;;;;;13.63;7.15;;;34.50;43.30;;;;;;4992200;28;20023;-49